Terminal Aerodrome Forecast
Issued by NWS

Home | Current Version | Previous Version | Text Only | Print | Product List | Glossary On
Versions: 1 2 3 4 5 6 7 8 9 10 11 12 13 14 15 16 17 18 19 20
980
FTUS45 KPSR 191610 AAD
TAFIPL
TAF AMD
KIPL 191610Z 1916/2012 27022G32KT 4SM BLDU SCT060 SCT250
      TEMPO 1916/1918 27028G40KT 1SM BLDU BKN005
     FM200500 27010KT P6SM SKC=

USA.gov is the U.S. government's official web portal to all federal, state and local government web resources and services.